Rossford, Ohio
Current Conditions -  °F | °C
As of 7:53 AM on Monday 22 Dec 2014 (Local Time) from KTDZ Reporting Station
Haze Haze  
Wind Chill: 18°   Ceiling: Unl
Heat Index: 24°   Visibility: 5mi
Dew Point: 20°   Wind: 5mph
Humidity: 84%   Direction: 90°E
Pressure: 30.11"   Gusts: NA
Location:  41.61°N, 83.56°W
Report Text: KTDZ 221253Z AUTO 09004KT 5SM BR CLR M04/M07 A3011 RMK AO2 SLP203 T10441067 TSNO
Loading
Personal Weather Stations






























Interactive Weather Map New forecast layout! Learn more

10-Day Weather Forecast

Advertisements
Track Severe Weather on mobile